Terminal Aerodrome Forecast
Issued by NWS Cleveland, OH

Home | Current Version | Previous Version | Text Only | Print | Product List | Glossary Off
Versions: 1 2 3 4 5 6 7 8 9 10 11 12 13 14 15 16 17 18 19 20

000
FTUS41 KCLE 281700
TAFYNG
TAF
KYNG 281736Z 2818/2918 VRB03KT P6SM FEW045 BKN250
     FM290000 VRB02KT P6SM SCT200
     FM290900 00000KT 3SM BR SCT200
      TEMPO 2910/2913 3/4SM BR
     FM291400 25004KT P6SM FEW040 SCT200=

USA.gov is the U.S. government's official web portal to all federal, state and local government web resources and services.